sensor_id;sensor_type;location;lat;lon;timestamp;P1;durP1;ratioP1;P2;durP2;ratioP2
85691;SDS011;76122;47.806;18.914;2024-02-26T00:01:21;25.33;;;14.10;;
85691;SDS011;76122;47.806;18.914;2024-02-26T00:03:46;24.80;;;13.03;;
85691;SDS011;76122;47.806;18.914;2024-02-26T00:06:12;25.25;;;13.77;;
85691;SDS011;76122;47.806;18.914;2024-02-26T00:08:38;27.27;;;13.87;;
85691;SDS011;76122;47.806;18.914;2024-02-26T00:11:03;29.17;;;13.50;;
85691;SDS011;76122;47.806;18.914;2024-02-26T00:13:28;24.07;;;13.20;;
85691;SDS011;76122;47.806;18.914;2024-02-26T00:15:54;23.40;;;13.90;;
85691;SDS011;76122;47.806;18.914;2024-02-26T00:18:19;28.08;;;13.90;;
85691;SDS011;76122;47.806;18.914;2024-02-26T00:20:44;24.13;;;13.03;;
85691;SDS011;76122;47.806;18.914;2024-02-26T00:23:10;26.57;;;13.87;;
85691;SDS011;76122;47.806;18.914;2024-02-26T00:25:35;27.87;;;14.97;;
85691;SDS011;76122;47.806;18.914;2024-02-26T00:28:02;25.73;;;13.90;;
85691;SDS011;76122;47.806;18.914;2024-02-26T00:30:29;26.08;;;14.50;;
85691;SDS011;76122;47.806;18.914;2024-02-26T00:32:54;24.13;;;13.70;;
85691;SDS011;76122;47.806;18.914;2024-02-26T00:35:19;28.13;;;14.53;;
85691;SDS011;76122;47.806;18.914;2024-02-26T00:37:45;23.55;;;13.62;;
85691;SDS011;76122;47.806;18.914;2024-02-26T00:40:11;26.15;;;13.45;;
85691;SDS011;76122;47.806;18.914;2024-02-26T00:42:36;26.23;;;14.20;;
85691;SDS011;76122;47.806;18.914;2024-02-26T00:45:02;27.27;;;14.43;;
85691;SDS011;76122;47.806;18.914;2024-02-26T00:47:27;24.92;;;13.43;;
85691;SDS011;76122;47.806;18.914;2024-02-26T00:49:53;24.33;;;13.77;;
85691;SDS011;76122;47.806;18.914;2024-02-26T00:52:18;23.77;;;13.13;;
85691;SDS011;76122;47.806;18.914;2024-02-26T00:54:44;24.75;;;13.70;;
85691;SDS011;76122;47.806;18.914;2024-02-26T00:57:09;23.20;;;12.87;;
85691;SDS011;76122;47.806;18.914;2024-02-26T00:59:35;25.70;;;14.03;;
85691;SDS011;76122;47.806;18.914;2024-02-26T01:02:00;27.87;;;14.87;;
85691;SDS011;76122;47.806;18.914;2024-02-26T01:04:27;26.20;;;14.02;;
85691;SDS011;76122;47.806;18.914;2024-02-26T01:06:52;25.97;;;14.40;;
85691;SDS011;76122;47.806;18.914;2024-02-26T01:09:18;27.90;;;14.53;;
85691;SDS011;76122;47.806;18.914;2024-02-26T01:11:43;27.13;;;14.52;;
85691;SDS011;76122;47.806;18.914;2024-02-26T01:14:09;28.10;;;14.83;;
85691;SDS011;76122;47.806;18.914;2024-02-26T01:16:34;27.73;;;14.67;;
85691;SDS011;76122;47.806;18.914;2024-02-26T01:19:00;23.50;;;14.07;;
85691;SDS011;76122;47.806;18.914;2024-02-26T01:21:25;28.47;;;14.57;;
85691;SDS011;76122;47.806;18.914;2024-02-26T01:23:54;25.90;;;14.45;;
85691;SDS011;76122;47.806;18.914;2024-02-26T01:26:19;27.13;;;14.57;;
85691;SDS011;76122;47.806;18.914;2024-02-26T01:28:45;27.03;;;15.13;;
85691;SDS011;76122;47.806;18.914;2024-02-26T01:31:10;28.93;;;15.37;;
85691;SDS011;76122;47.806;18.914;2024-02-26T01:33:36;26.25;;;14.35;;
85691;SDS011;76122;47.806;18.914;2024-02-26T01:36:01;30.30;;;15.60;;
85691;SDS011;76122;47.806;18.914;2024-02-26T01:38:26;29.57;;;15.43;;
85691;SDS011;76122;47.806;18.914;2024-02-26T01:40:52;29.67;;;15.95;;
85691;SDS011;76122;47.806;18.914;2024-02-26T01:43:18;27.77;;;15.27;;
85691;SDS011;76122;47.806;18.914;2024-02-26T01:45:43;31.67;;;15.60;;
85691;SDS011;76122;47.806;18.914;2024-02-26T01:48:08;29.47;;;16.63;;
85691;SDS011;76122;47.806;18.914;2024-02-26T01:50:35;29.20;;;15.82;;
85691;SDS011;76122;47.806;18.914;2024-02-26T01:53:02;29.40;;;15.65;;
85691;SDS011;76122;47.806;18.914;2024-02-26T01:55:28;28.37;;;16.20;;
85691;SDS011;76122;47.806;18.914;2024-02-26T01:57:53;31.50;;;15.87;;
85691;SDS011;76122;47.806;18.914;2024-02-26T02:00:19;30.25;;;15.90;;
85691;SDS011;76122;47.806;18.914;2024-02-26T02:02:45;30.52;;;15.35;;
85691;SDS011;76122;47.806;18.914;2024-02-26T02:05:13;29.53;;;15.20;;
85691;SDS011;76122;47.806;18.914;2024-02-26T02:07:40;30.02;;;16.00;;
85691;SDS011;76122;47.806;18.914;2024-02-26T02:10:06;29.48;;;15.32;;
85691;SDS011;76122;47.806;18.914;2024-02-26T02:12:32;30.40;;;15.73;;
85691;SDS011;76122;47.806;18.914;2024-02-26T02:14:59;27.85;;;15.18;;
85691;SDS011;76122;47.806;18.914;2024-02-26T02:17:25;26.70;;;15.45;;
85691;SDS011;76122;47.806;18.914;2024-02-26T02:19:52;28.70;;;15.48;;
85691;SDS011;76122;47.806;18.914;2024-02-26T02:22:17;28.17;;;15.13;;
85691;SDS011;76122;47.806;18.914;2024-02-26T02:24:43;24.67;;;14.00;;
85691;SDS011;76122;47.806;18.914;2024-02-26T02:27:08;29.30;;;15.33;;
85691;SDS011;76122;47.806;18.914;2024-02-26T02:29:33;29.05;;;15.35;;
85691;SDS011;76122;47.806;18.914;2024-02-26T02:31:59;27.33;;;14.57;;
85691;SDS011;76122;47.806;18.914;2024-02-26T02:34:26;29.23;;;14.93;;
85691;SDS011;76122;47.806;18.914;2024-02-26T02:36:52;27.10;;;14.80;;
85691;SDS011;76122;47.806;18.914;2024-02-26T02:39:18;27.70;;;15.25;;
85691;SDS011;76122;47.806;18.914;2024-02-26T02:41:43;25.27;;;14.23;;
85691;SDS011;76122;47.806;18.914;2024-02-26T02:44:08;27.00;;;14.70;;
85691;SDS011;76122;47.806;18.914;2024-02-26T02:46:34;28.27;;;14.53;;
85691;SDS011;76122;47.806;18.914;2024-02-26T02:49:00;28.05;;;15.13;;
85691;SDS011;76122;47.806;18.914;2024-02-26T02:51:26;27.60;;;13.70;;
85691;SDS011;76122;47.806;18.914;2024-02-26T02:53:51;22.95;;;13.07;;
85691;SDS011;76122;47.806;18.914;2024-02-26T02:56:16;24.33;;;13.17;;
85691;SDS011;76122;47.806;18.914;2024-02-26T02:58:42;24.23;;;13.73;;
85691;SDS011;76122;47.806;18.914;2024-02-26T03:01:07;23.60;;;13.83;;
85691;SDS011;76122;47.806;18.914;2024-02-26T03:03:32;25.60;;;14.20;;
85691;SDS011;76122;47.806;18.914;2024-02-26T03:05:58;22.80;;;13.07;;
85691;SDS011;76122;47.806;18.914;2024-02-26T03:08:23;24.98;;;12.90;;
85691;SDS011;76122;47.806;18.914;2024-02-26T03:10:50;25.58;;;13.35;;
85691;SDS011;76122;47.806;18.914;2024-02-26T03:13:16;26.05;;;13.95;;
85691;SDS011;76122;47.806;18.914;2024-02-26T03:15:41;28.23;;;13.30;;
85691;SDS011;76122;47.806;18.914;2024-02-26T03:18:07;25.37;;;13.03;;
85691;SDS011;76122;47.806;18.914;2024-02-26T03:20:32;25.47;;;13.17;;
85691;SDS011;76122;47.806;18.914;2024-02-26T03:22:58;25.60;;;12.68;;
85691;SDS011;76122;47.806;18.914;2024-02-26T03:25:24;22.27;;;12.07;;
85691;SDS011;76122;47.806;18.914;2024-02-26T03:27:49;23.20;;;12.65;;
85691;SDS011;76122;47.806;18.914;2024-02-26T03:30:15;20.95;;;11.85;;
85691;SDS011;76122;47.806;18.914;2024-02-26T03:32:40;22.43;;;11.40;;
85691;SDS011;76122;47.806;18.914;2024-02-26T03:35:06;21.50;;;12.10;;
85691;SDS011;76122;47.806;18.914;2024-02-26T03:37:32;20.90;;;12.15;;
85691;SDS011;76122;47.806;18.914;2024-02-26T03:39:58;20.80;;;12.52;;
85691;SDS011;76122;47.806;18.914;2024-02-26T03:42:23;23.53;;;12.33;;
85691;SDS011;76122;47.806;18.914;2024-02-26T03:44:49;20.63;;;12.20;;
85691;SDS011;76122;47.806;18.914;2024-02-26T03:47:14;20.47;;;11.67;;
85691;SDS011;76122;47.806;18.914;2024-02-26T03:49:39;22.30;;;11.90;;
85691;SDS011;76122;47.806;18.914;2024-02-26T03:52:05;25.95;;;13.60;;
85691;SDS011;76122;47.806;18.914;2024-02-26T03:54:30;24.92;;;13.32;;
85691;SDS011;76122;47.806;18.914;2024-02-26T03:56:56;28.07;;;13.50;;
85691;SDS011;76122;47.806;18.914;2024-02-26T03:59:21;25.17;;;13.23;;
85691;SDS011;76122;47.806;18.914;2024-02-26T04:01:49;27.98;;;14.02;;
85691;SDS011;76122;47.806;18.914;2024-02-26T04:04:14;26.27;;;14.77;;
85691;SDS011;76122;47.806;18.914;2024-02-26T04:06:43;27.33;;;13.70;;
85691;SDS011;76122;47.806;18.914;2024-02-26T04:09:09;27.25;;;14.32;;
85691;SDS011;76122;47.806;18.914;2024-02-26T04:11:35;26.87;;;14.30;;
85691;SDS011;76122;47.806;18.914;2024-02-26T04:14:00;26.30;;;13.87;;
85691;SDS011;76122;47.806;18.914;2024-02-26T04:16:26;25.97;;;13.57;;
85691;SDS011;76122;47.806;18.914;2024-02-26T04:18:51;26.77;;;14.53;;
85691;SDS011;76122;47.806;18.914;2024-02-26T04:21:18;26.35;;;13.40;;
85691;SDS011;76122;47.806;18.914;2024-02-26T04:23:43;30.53;;;14.53;;
85691;SDS011;76122;47.806;18.914;2024-02-26T04:26:09;27.93;;;14.70;;
85691;SDS011;76122;47.806;18.914;2024-02-26T04:28:34;26.60;;;13.60;;
85691;SDS011;76122;47.806;18.914;2024-02-26T04:31:00;26.33;;;14.10;;
85691;SDS011;76122;47.806;18.914;2024-02-26T04:33:26;25.27;;;13.25;;
85691;SDS011;76122;47.806;18.914;2024-02-26T04:35:52;26.03;;;13.63;;
85691;SDS011;76122;47.806;18.914;2024-02-26T04:38:17;24.60;;;12.70;;
85691;SDS011;76122;47.806;18.914;2024-02-26T04:40:43;26.10;;;13.00;;
85691;SDS011;76122;47.806;18.914;2024-02-26T04:43:08;26.67;;;14.63;;
85691;SDS011;76122;47.806;18.914;2024-02-26T04:45:33;26.33;;;13.23;;
85691;SDS011;76122;47.806;18.914;2024-02-26T04:47:59;24.77;;;12.98;;
85691;SDS011;76122;47.806;18.914;2024-02-26T04:50:24;26.70;;;13.20;;
85691;SDS011;76122;47.806;18.914;2024-02-26T04:52:50;24.13;;;12.77;;
85691;SDS011;76122;47.806;18.914;2024-02-26T04:55:15;24.63;;;12.73;;
85691;SDS011;76122;47.806;18.914;2024-02-26T04:57:40;26.00;;;13.37;;
85691;SDS011;76122;47.806;18.914;2024-02-26T05:00:06;26.47;;;12.87;;
85691;SDS011;76122;47.806;18.914;2024-02-26T05:02:32;26.00;;;12.73;;
85691;SDS011;76122;47.806;18.914;2024-02-26T05:04:58;22.90;;;12.05;;
85691;SDS011;76122;47.806;18.914;2024-02-26T05:07:24;24.17;;;12.80;;
85691;SDS011;76122;47.806;18.914;2024-02-26T05:09:49;24.33;;;11.55;;
85691;SDS011;76122;47.806;18.914;2024-02-26T05:12:14;22.73;;;11.35;;
85691;SDS011;76122;47.806;18.914;2024-02-26T05:14:40;22.60;;;11.77;;
85691;SDS011;76122;47.806;18.914;2024-02-26T05:17:05;23.07;;;11.93;;
85691;SDS011;76122;47.806;18.914;2024-02-26T05:19:31;22.57;;;11.83;;
85691;SDS011;76122;47.806;18.914;2024-02-26T05:21:56;21.98;;;12.05;;
85691;SDS011;76122;47.806;18.914;2024-02-26T05:24:22;23.70;;;11.38;;
85691;SDS011;76122;47.806;18.914;2024-02-26T05:26:47;22.87;;;12.90;;
85691;SDS011;76122;47.806;18.914;2024-02-26T05:29:13;23.93;;;11.63;;
85691;SDS011;76122;47.806;18.914;2024-02-26T05:31:38;24.02;;;12.75;;
85691;SDS011;76122;47.806;18.914;2024-02-26T05:34:04;23.50;;;11.93;;
85691;SDS011;76122;47.806;18.914;2024-02-26T05:36:29;22.40;;;11.50;;
85691;SDS011;76122;47.806;18.914;2024-02-26T05:38:58;22.52;;;12.45;;
85691;SDS011;76122;47.806;18.914;2024-02-26T05:41:26;22.27;;;12.27;;
85691;SDS011;76122;47.806;18.914;2024-02-26T05:43:52;23.57;;;11.83;;
85691;SDS011;76122;47.806;18.914;2024-02-26T05:46:18;23.08;;;12.00;;
85691;SDS011;76122;47.806;18.914;2024-02-26T05:48:44;25.80;;;12.17;;
85691;SDS011;76122;47.806;18.914;2024-02-26T05:51:12;24.45;;;11.73;;
85691;SDS011;76122;47.806;18.914;2024-02-26T05:53:37;22.90;;;12.07;;
85691;SDS011;76122;47.806;18.914;2024-02-26T05:56:05;22.70;;;11.68;;
85691;SDS011;76122;47.806;18.914;2024-02-26T05:58:31;25.52;;;11.93;;
85691;SDS011;76122;47.806;18.914;2024-02-26T06:00:56;23.63;;;11.53;;
85691;SDS011;76122;47.806;18.914;2024-02-26T06:03:22;21.73;;;11.50;;
85691;SDS011;76122;47.806;18.914;2024-02-26T06:05:47;26.47;;;12.30;;
85691;SDS011;76122;47.806;18.914;2024-02-26T06:08:12;24.80;;;12.23;;
85691;SDS011;76122;47.806;18.914;2024-02-26T06:10:38;25.15;;;11.98;;
85691;SDS011;76122;47.806;18.914;2024-02-26T06:13:04;22.57;;;12.00;;
85691;SDS011;76122;47.806;18.914;2024-02-26T06:15:29;23.98;;;11.45;;
85691;SDS011;76122;47.806;18.914;2024-02-26T06:17:55;21.10;;;11.20;;
85691;SDS011;76122;47.806;18.914;2024-02-26T06:20:20;21.67;;;10.13;;
85691;SDS011;76122;47.806;18.914;2024-02-26T06:22:46;23.63;;;11.13;;
85691;SDS011;76122;47.806;18.914;2024-02-26T06:25:11;24.87;;;10.73;;
85691;SDS011;76122;47.806;18.914;2024-02-26T06:27:36;22.70;;;10.90;;
85691;SDS011;76122;47.806;18.914;2024-02-26T06:30:02;24.73;;;11.43;;
85691;SDS011;76122;47.806;18.914;2024-02-26T06:32:27;22.75;;;11.48;;
85691;SDS011;76122;47.806;18.914;2024-02-26T06:34:54;27.80;;;12.80;;
85691;SDS011;76122;47.806;18.914;2024-02-26T06:37:19;28.20;;;11.97;;
85691;SDS011;76122;47.806;18.914;2024-02-26T06:39:45;28.07;;;12.50;;
85691;SDS011;76122;47.806;18.914;2024-02-26T06:42:10;30.87;;;13.20;;
85691;SDS011;76122;47.806;18.914;2024-02-26T06:44:36;26.50;;;11.82;;
85691;SDS011;76122;47.806;18.914;2024-02-26T06:47:01;25.63;;;12.40;;
85691;SDS011;76122;47.806;18.914;2024-02-26T06:49:27;28.20;;;12.50;;
85691;SDS011;76122;47.806;18.914;2024-02-26T06:51:53;24.77;;;12.05;;
85691;SDS011;76122;47.806;18.914;2024-02-26T06:54:18;23.57;;;11.87;;
85691;SDS011;76122;47.806;18.914;2024-02-26T06:56:43;26.13;;;12.70;;
85691;SDS011;76122;47.806;18.914;2024-02-26T06:59:09;27.13;;;13.30;;
85691;SDS011;76122;47.806;18.914;2024-02-26T07:01:34;27.13;;;12.57;;
85691;SDS011;76122;47.806;18.914;2024-02-26T07:03:59;28.00;;;13.02;;
85691;SDS011;76122;47.806;18.914;2024-02-26T07:06:25;27.87;;;12.83;;
85691;SDS011;76122;47.806;18.914;2024-02-26T07:08:52;28.08;;;13.27;;
85691;SDS011;76122;47.806;18.914;2024-02-26T07:11:17;29.87;;;14.47;;
85691;SDS011;76122;47.806;18.914;2024-02-26T07:13:44;28.85;;;14.43;;
85691;SDS011;76122;47.806;18.914;2024-02-26T07:16:10;27.13;;;14.30;;
85691;SDS011;76122;47.806;18.914;2024-02-26T07:18:35;27.77;;;14.60;;
85691;SDS011;76122;47.806;18.914;2024-02-26T07:21:01;29.87;;;14.10;;
85691;SDS011;76122;47.806;18.914;2024-02-26T07:23:27;31.30;;;14.57;;
85691;SDS011;76122;47.806;18.914;2024-02-26T07:25:53;30.17;;;15.03;;
85691;SDS011;76122;47.806;18.914;2024-02-26T07:28:18;29.43;;;15.20;;
85691;SDS011;76122;47.806;18.914;2024-02-26T07:30:44;30.37;;;15.27;;
85691;SDS011;76122;47.806;18.914;2024-02-26T07:33:10;34.13;;;16.50;;
85691;SDS011;76122;47.806;18.914;2024-02-26T07:35:35;33.13;;;15.48;;
85691;SDS011;76122;47.806;18.914;2024-02-26T07:38:01;32.35;;;15.95;;
85691;SDS011;76122;47.806;18.914;2024-02-26T07:40:27;32.37;;;16.10;;
85691;SDS011;76122;47.806;18.914;2024-02-26T07:42:52;31.67;;;15.32;;
85691;SDS011;76122;47.806;18.914;2024-02-26T07:45:17;34.33;;;17.02;;
85691;SDS011;76122;47.806;18.914;2024-02-26T07:47:45;32.07;;;16.27;;
85691;SDS011;76122;47.806;18.914;2024-02-26T07:50:11;33.50;;;17.37;;
85691;SDS011;76122;47.806;18.914;2024-02-26T07:52:37;37.03;;;17.25;;
85691;SDS011;76122;47.806;18.914;2024-02-26T07:55:02;36.03;;;16.40;;
85691;SDS011;76122;47.806;18.914;2024-02-26T07:57:28;33.13;;;16.90;;
85691;SDS011;76122;47.806;18.914;2024-02-26T07:59:53;33.88;;;17.05;;
85691;SDS011;76122;47.806;18.914;2024-02-26T08:02:19;33.13;;;17.47;;
85691;SDS011;76122;47.806;18.914;2024-02-26T08:04:44;33.60;;;17.10;;
85691;SDS011;76122;47.806;18.914;2024-02-26T08:07:10;34.73;;;17.80;;
85691;SDS011;76122;47.806;18.914;2024-02-26T08:09:35;33.97;;;17.73;;
85691;SDS011;76122;47.806;18.914;2024-02-26T08:12:00;35.00;;;17.17;;
85691;SDS011;76122;47.806;18.914;2024-02-26T08:14:26;34.73;;;16.80;;
85691;SDS011;76122;47.806;18.914;2024-02-26T08:16:51;36.10;;;18.00;;
85691;SDS011;76122;47.806;18.914;2024-02-26T08:19:17;36.80;;;18.40;;
85691;SDS011;76122;47.806;18.914;2024-02-26T08:21:42;34.25;;;17.08;;
85691;SDS011;76122;47.806;18.914;2024-02-26T08:24:08;41.67;;;19.23;;
85691;SDS011;76122;47.806;18.914;2024-02-26T08:26:33;37.20;;;18.40;;
85691;SDS011;76122;47.806;18.914;2024-02-26T08:28:59;36.97;;;19.43;;
85691;SDS011;76122;47.806;18.914;2024-02-26T08:31:24;37.33;;;18.97;;
85691;SDS011;76122;47.806;18.914;2024-02-26T08:33:50;36.03;;;18.65;;
85691;SDS011;76122;47.806;18.914;2024-02-26T08:36:15;35.20;;;18.67;;
85691;SDS011;76122;47.806;18.914;2024-02-26T08:38:41;35.33;;;18.53;;
85691;SDS011;76122;47.806;18.914;2024-02-26T08:41:06;35.87;;;18.27;;
85691;SDS011;76122;47.806;18.914;2024-02-26T08:43:31;38.43;;;18.47;;
85691;SDS011;76122;47.806;18.914;2024-02-26T08:45:57;36.45;;;17.90;;
85691;SDS011;76122;47.806;18.914;2024-02-26T08:48:23;38.25;;;18.55;;
85691;SDS011;76122;47.806;18.914;2024-02-26T08:50:48;36.95;;;18.58;;
85691;SDS011;76122;47.806;18.914;2024-02-26T08:53:13;37.85;;;18.55;;
85691;SDS011;76122;47.806;18.914;2024-02-26T08:55:39;33.87;;;17.17;;
85691;SDS011;76122;47.806;18.914;2024-02-26T08:58:04;33.93;;;17.43;;
85691;SDS011;76122;47.806;18.914;2024-02-26T09:00:29;33.23;;;17.33;;
85691;SDS011;76122;47.806;18.914;2024-02-26T09:02:56;35.75;;;17.77;;
85691;SDS011;76122;47.806;18.914;2024-02-26T09:05:21;36.80;;;18.67;;
85691;SDS011;76122;47.806;18.914;2024-02-26T09:07:46;36.53;;;17.77;;
85691;SDS011;76122;47.806;18.914;2024-02-26T09:10:12;36.67;;;18.20;;
85691;SDS011;76122;47.806;18.914;2024-02-26T09:12:37;37.60;;;18.47;;
85691;SDS011;76122;47.806;18.914;2024-02-26T09:15:05;34.85;;;17.90;;
85691;SDS011;76122;47.806;18.914;2024-02-26T09:17:31;36.70;;;19.58;;
85691;SDS011;76122;47.806;18.914;2024-02-26T09:19:56;33.60;;;18.40;;
85691;SDS011;76122;47.806;18.914;2024-02-26T09:22:22;34.03;;;19.00;;
85691;SDS011;76122;47.806;18.914;2024-02-26T09:24:47;33.25;;;17.85;;
85691;SDS011;76122;47.806;18.914;2024-02-26T09:27:15;35.43;;;17.90;;
85691;SDS011;76122;47.806;18.914;2024-02-26T09:29:40;34.92;;;17.55;;
85691;SDS011;76122;47.806;18.914;2024-02-26T09:32:06;34.67;;;18.63;;
85691;SDS011;76122;47.806;18.914;2024-02-26T09:34:31;31.97;;;17.97;;
85691;SDS011;76122;47.806;18.914;2024-02-26T09:36:57;32.73;;;17.30;;
85691;SDS011;76122;47.806;18.914;2024-02-26T09:39:22;34.30;;;18.48;;
85691;SDS011;76122;47.806;18.914;2024-02-26T09:41:48;33.90;;;18.10;;
85691;SDS011;76122;47.806;18.914;2024-02-26T09:44:20;35.10;;;19.43;;
85691;SDS011;76122;47.806;18.914;2024-02-26T09:46:48;34.95;;;18.60;;
85691;SDS011;76122;47.806;18.914;2024-02-26T09:49:17;38.47;;;20.65;;
85691;SDS011;76122;47.806;18.914;2024-02-26T09:51:44;37.90;;;20.95;;
85691;SDS011;76122;47.806;18.914;2024-02-26T09:54:09;33.07;;;19.10;;
85691;SDS011;76122;47.806;18.914;2024-02-26T09:56:39;37.65;;;19.12;;
85691;SDS011;76122;47.806;18.914;2024-02-26T09:59:06;37.28;;;21.02;;
85691;SDS011;76122;47.806;18.914;2024-02-26T10:01:36;39.73;;;19.50;;
85691;SDS011;76122;47.806;18.914;2024-02-26T10:04:03;35.70;;;20.17;;
85691;SDS011;76122;47.806;18.914;2024-02-26T10:06:29;36.47;;;20.65;;
85691;SDS011;76122;47.806;18.914;2024-02-26T10:08:55;37.20;;;20.57;;
85691;SDS011;76122;47.806;18.914;2024-02-26T10:11:23;39.93;;;20.60;;
85691;SDS011;76122;47.806;18.914;2024-02-26T10:13:49;35.90;;;20.30;;
85691;SDS011;76122;47.806;18.914;2024-02-26T10:16:14;34.73;;;19.93;;
85691;SDS011;76122;47.806;18.914;2024-02-26T10:21:16;38.40;;;20.08;;
85691;SDS011;76122;47.806;18.914;2024-02-26T10:23:43;38.07;;;19.70;;
85691;SDS011;76122;47.806;18.914;2024-02-26T10:26:10;36.42;;;20.50;;
85691;SDS011;76122;47.806;18.914;2024-02-26T10:28:37;36.97;;;20.58;;
85691;SDS011;76122;47.806;18.914;2024-02-26T10:31:02;34.13;;;20.83;;
85691;SDS011;76122;47.806;18.914;2024-02-26T10:33:28;33.30;;;20.27;;
85691;SDS011;76122;47.806;18.914;2024-02-26T10:35:53;42.37;;;22.63;;
85691;SDS011;76122;47.806;18.914;2024-02-26T10:38:19;37.47;;;22.10;;
85691;SDS011;76122;47.806;18.914;2024-02-26T10:40:45;41.28;;;22.05;;
85691;SDS011;76122;47.806;18.914;2024-02-26T10:43:11;40.67;;;22.00;;
85691;SDS011;76122;47.806;18.914;2024-02-26T10:45:38;37.40;;;21.10;;
85691;SDS011;76122;47.806;18.914;2024-02-26T10:48:09;39.77;;;21.90;;
85691;SDS011;76122;47.806;18.914;2024-02-26T10:50:35;38.75;;;22.02;;
85691;SDS011;76122;47.806;18.914;2024-02-26T10:53:00;43.60;;;23.43;;
85691;SDS011;76122;47.806;18.914;2024-02-26T10:55:26;38.80;;;22.10;;
85691;SDS011;76122;47.806;18.914;2024-02-26T10:57:52;43.87;;;23.43;;
85691;SDS011;76122;47.806;18.914;2024-02-26T11:00:17;48.35;;;24.27;;
85691;SDS011;76122;47.806;18.914;2024-02-26T11:02:44;42.87;;;22.47;;
85691;SDS011;76122;47.806;18.914;2024-02-26T11:05:11;43.38;;;23.60;;
85691;SDS011;76122;47.806;18.914;2024-02-26T11:07:37;38.17;;;21.92;;
85691;SDS011;76122;47.806;18.914;2024-02-26T11:10:03;45.30;;;24.50;;
85691;SDS011;76122;47.806;18.914;2024-02-26T11:12:31;46.58;;;24.37;;
85691;SDS011;76122;47.806;18.914;2024-02-26T11:14:57;44.73;;;24.90;;
85691;SDS011;76122;47.806;18.914;2024-02-26T11:17:26;45.20;;;24.63;;
85691;SDS011;76122;47.806;18.914;2024-02-26T11:19:55;46.17;;;25.30;;
85691;SDS011;76122;47.806;18.914;2024-02-26T11:22:22;47.33;;;27.00;;
85691;SDS011;76122;47.806;18.914;2024-02-26T11:24:51;48.20;;;25.15;;
85691;SDS011;76122;47.806;18.914;2024-02-26T11:27:17;44.97;;;24.83;;
85691;SDS011;76122;47.806;18.914;2024-02-26T11:29:46;44.03;;;23.62;;
85691;SDS011;76122;47.806;18.914;2024-02-26T11:32:13;41.47;;;24.00;;
85691;SDS011;76122;47.806;18.914;2024-02-26T11:34:39;39.78;;;22.48;;
85691;SDS011;76122;47.806;18.914;2024-02-26T11:37:11;38.60;;;22.03;;
85691;SDS011;76122;47.806;18.914;2024-02-26T11:39:39;41.28;;;21.37;;
85691;SDS011;76122;47.806;18.914;2024-02-26T11:42:06;35.55;;;21.02;;
85691;SDS011;76122;47.806;18.914;2024-02-26T11:44:33;35.03;;;19.48;;
85691;SDS011;76122;47.806;18.914;2024-02-26T11:46:58;35.00;;;19.13;;
85691;SDS011;76122;47.806;18.914;2024-02-26T11:51:54;35.13;;;19.73;;
85691;SDS011;76122;47.806;18.914;2024-02-26T11:57:27;33.97;;;20.10;;
85691;SDS011;76122;47.806;18.914;2024-02-26T11:59:57;37.28;;;20.20;;
85691;SDS011;76122;47.806;18.914;2024-02-26T12:02:46;40.90;;;21.90;;
85691;SDS011;76122;47.806;18.914;2024-02-26T12:05:15;41.05;;;22.20;;
85691;SDS011;76122;47.806;18.914;2024-02-26T12:07:43;49.73;;;26.20;;
85691;SDS011;76122;47.806;18.914;2024-02-26T12:10:34;44.50;;;24.35;;
85691;SDS011;76122;47.806;18.914;2024-02-26T12:13:02;47.25;;;24.42;;
85691;SDS011;76122;47.806;18.914;2024-02-26T12:15:31;49.25;;;26.37;;
85691;SDS011;76122;47.806;18.914;2024-02-26T12:18:00;50.12;;;26.95;;
85691;SDS011;76122;47.806;18.914;2024-02-26T12:20:26;54.77;;;27.60;;
85691;SDS011;76122;47.806;18.914;2024-02-26T12:22:51;49.50;;;26.52;;
85691;SDS011;76122;47.806;18.914;2024-02-26T12:25:19;50.00;;;26.98;;
85691;SDS011;76122;47.806;18.914;2024-02-26T12:27:48;43.28;;;24.50;;
85691;SDS011;76122;47.806;18.914;2024-02-26T12:30:13;42.92;;;24.83;;
85691;SDS011;76122;47.806;18.914;2024-02-26T12:32:38;44.97;;;25.23;;
85691;SDS011;76122;47.806;18.914;2024-02-26T12:35:05;60.47;;;35.13;;
85691;SDS011;76122;47.806;18.914;2024-02-26T12:37:30;124.18;;;64.18;;
85691;SDS011;76122;47.806;18.914;2024-02-26T12:39:57;94.93;;;47.67;;
85691;SDS011;76122;47.806;18.914;2024-02-26T12:42:22;61.87;;;34.47;;
85691;SDS011;76122;47.806;18.914;2024-02-26T12:44:49;52.57;;;30.40;;
85691;SDS011;76122;47.806;18.914;2024-02-26T12:47:14;52.55;;;31.75;;
85691;SDS011;76122;47.806;18.914;2024-02-26T12:49:42;44.38;;;26.12;;
85691;SDS011;76122;47.806;18.914;2024-02-26T12:52:09;44.47;;;25.47;;
85691;SDS011;76122;47.806;18.914;2024-02-26T12:54:35;38.15;;;21.33;;
85691;SDS011;76122;47.806;18.914;2024-02-26T12:57:03;37.00;;;21.87;;
85691;SDS011;76122;47.806;18.914;2024-02-26T12:59:31;48.53;;;23.77;;
85691;SDS011;76122;47.806;18.914;2024-02-26T13:01:57;29.23;;;16.03;;
85691;SDS011;76122;47.806;18.914;2024-02-26T13:04:23;26.15;;;14.65;;
85691;SDS011;76122;47.806;18.914;2024-02-26T13:06:49;34.47;;;19.37;;
85691;SDS011;76122;47.806;18.914;2024-02-26T13:09:14;42.08;;;23.48;;
85691;SDS011;76122;47.806;18.914;2024-02-26T13:11:40;43.67;;;24.73;;
85691;SDS011;76122;47.806;18.914;2024-02-26T13:14:05;30.80;;;17.47;;
85691;SDS011;76122;47.806;18.914;2024-02-26T13:16:31;25.80;;;14.85;;
85691;SDS011;76122;47.806;18.914;2024-02-26T13:19:07;25.80;;;15.57;;
85691;SDS011;76122;47.806;18.914;2024-02-26T13:21:34;34.50;;;20.40;;
85691;SDS011;76122;47.806;18.914;2024-02-26T13:23:59;29.73;;;18.17;;
85691;SDS011;76122;47.806;18.914;2024-02-26T13:26:25;77.57;;;41.97;;
85691;SDS011;76122;47.806;18.914;2024-02-26T13:29:00;50.20;;;28.37;;
85691;SDS011;76122;47.806;18.914;2024-02-26T13:31:28;24.08;;;13.35;;
85691;SDS011;76122;47.806;18.914;2024-02-26T13:33:53;18.90;;;10.70;;
85691;SDS011;76122;47.806;18.914;2024-02-26T13:36:21;19.35;;;11.93;;
85691;SDS011;76122;47.806;18.914;2024-02-26T13:38:53;17.10;;;10.80;;
85691;SDS011;76122;47.806;18.914;2024-02-26T13:41:19;18.52;;;10.65;;
85691;SDS011;76122;47.806;18.914;2024-02-26T13:43:46;16.48;;;9.30;;
85691;SDS011;76122;47.806;18.914;2024-02-26T13:46:11;17.83;;;11.15;;
85691;SDS011;76122;47.806;18.914;2024-02-26T13:48:39;19.07;;;11.73;;
85691;SDS011;76122;47.806;18.914;2024-02-26T13:51:04;22.00;;;11.85;;
85691;SDS011;76122;47.806;18.914;2024-02-26T13:53:30;20.63;;;13.27;;
85691;SDS011;76122;47.806;18.914;2024-02-26T13:55:55;21.50;;;13.57;;
85691;SDS011;76122;47.806;18.914;2024-02-26T13:58:21;18.05;;;11.60;;
85691;SDS011;76122;47.806;18.914;2024-02-26T14:00:48;17.10;;;9.90;;
85691;SDS011;76122;47.806;18.914;2024-02-26T14:03:14;21.27;;;10.70;;
85691;SDS011;76122;47.806;18.914;2024-02-26T14:05:39;20.47;;;11.60;;
85691;SDS011;76122;47.806;18.914;2024-02-26T14:08:06;25.30;;;13.15;;
85691;SDS011;76122;47.806;18.914;2024-02-26T14:10:31;21.42;;;10.45;;